Time;durP1;ratioP1;P1;durP2;ratioP2;P2;SDS_P1;SDS_P2;PMS_P1;PMS_P2;Temp;Humidity;BMP_temperature;BMP_pressure;BME280_temperature;BME280_humidity;BME280_pressure;Samples;Min_cycle;Max_cycle;Signal;HPM_P1;HPM_P2
2023/04/11 00:01:22;;;;;;;1.60;1.10;;;12.00;99.90;;;;;;5051828;28;20036;-35
2023/04/11 00:03:47;;;;;;;1.83;1.17;;;12.00;99.90;;;;;;5051819;28;20044;-35
2023/04/11 00:06:13;;;;;;;1.17;1.08;;;12.00;99.90;;;;;;5053274;28;20396;-36
2023/04/11 00:08:39;;;;;;;2.20;1.40;;;11.90;99.90;;;;;;5055310;28;20394;-35
2023/04/11 00:11:05;;;;;;;2.08;1.20;;;12.00;99.90;;;;;;5054504;28;20021;-35
2023/04/11 00:13:30;;;;;;;5.32;1.33;;;12.00;99.90;;;;;;5054834;28;20104;-36
2023/04/11 00:15:57;;;;;;;1.50;0.95;;;12.00;99.90;;;;;;5053695;28;20071;-35
2023/04/11 00:18:24;;;;;;;2.25;1.13;;;12.00;99.90;;;;;;5054703;28;20025;-35
2023/04/11 00:20:49;;;;;;;3.25;1.40;;;12.00;99.90;;;;;;5054257;28;20025;-36
2023/04/11 00:23:15;;;;;;;2.38;1.20;;;12.00;99.90;;;;;;5055122;28;20025;-37
2023/04/11 00:25:41;;;;;;;4.50;1.30;;;12.00;99.90;;;;;;5053534;28;20025;-34
2023/04/11 00:28:06;;;;;;;2.85;1.35;;;12.00;99.90;;;;;;5053338;28;20039;-35
2023/04/11 00:30:32;;;;;;;2.15;1.20;;;12.00;99.90;;;;;;5055361;28;20075;-34
2023/04/11 00:32:58;;;;;;;2.80;1.40;;;12.00;99.90;;;;;;5054908;28;20120;-36
2023/04/11 00:35:24;;;;;;;1.50;1.10;;;12.00;99.90;;;;;;5055507;28;20485;-35
2023/04/11 00:37:54;;;;;;;1.25;1.10;;;12.00;99.90;;;;;;5053936;28;20090;-37
2023/04/11 00:40:21;;;;;;;3.55;1.48;;;12.00;99.90;;;;;;5053492;28;20399;-36
2023/04/11 00:42:47;;;;;;;1.85;1.20;;;12.00;99.90;;;;;;5053879;28;20032;-35
2023/04/11 00:45:13;;;;;;;1.38;1.08;;;12.00;99.90;;;;;;5054449;28;20394;-35
2023/04/11 00:47:40;;;;;;;1.48;0.90;;;12.00;99.90;;;;;;5054225;28;20467;-35
2023/04/11 00:50:06;;;;;;;2.67;1.30;;;12.00;99.90;;;;;;5054166;28;20025;-37
2023/04/11 00:52:33;;;;;;;1.88;1.10;;;12.00;99.90;;;;;;5054269;28;20017;-35
2023/04/11 00:55:01;;;;;;;1.90;1.20;;;12.00;99.90;;;;;;5055127;28;20017;-36
2023/04/11 00:57:29;;;;;;;3.22;1.30;;;12.00;99.90;;;;;;5054512;28;20479;-35
2023/04/11 00:59:55;;;;;;;1.55;1.20;;;12.00;99.90;;;;;;5053685;28;20518;-34
2023/04/11 01:02:23;;;;;;;1.45;1.20;;;12.00;99.90;;;;;;5054118;28;20116;-36
2023/04/11 01:04:49;;;;;;;2.38;1.15;;;12.00;99.90;;;;;;5054316;28;20021;-36
2023/04/11 01:07:18;;;;;;;1.30;1.20;;;12.00;99.90;;;;;;5053580;28;20033;-37
2023/04/11 01:09:44;;;;;;;1.38;1.20;;;12.00;99.90;;;;;;5052854;28;20021;-35
2023/04/11 01:12:13;;;;;;;3.55;1.48;;;12.00;99.90;;;;;;5053181;28;20025;-35
2023/04/11 01:14:40;;;;;;;4.28;1.20;;;12.00;99.90;;;;;;5053237;28;20533;-37
2023/04/11 01:17:06;;;;;;;3.17;1.25;;;12.00;99.90;;;;;;5051823;28;20025;-36
2023/04/11 01:19:32;;;;;;;2.85;1.20;;;12.00;99.90;;;;;;5052930;28;20047;-36
2023/04/11 01:22:00;;;;;;;1.17;1.08;;;12.00;99.90;;;;;;5053605;28;20017;-36
2023/04/11 01:24:26;;;;;;;3.80;1.45;;;12.00;99.90;;;;;;5053396;28;20550;-37
2023/04/11 01:26:52;;;;;;;1.73;1.33;;;12.00;99.90;;;;;;5052147;28;20017;-35
2023/04/11 01:29:18;;;;;;;1.33;1.20;;;12.00;99.90;;;;;;5052913;28;20070;-37
2023/04/11 01:31:44;;;;;;;1.98;1.00;;;12.00;99.90;;;;;;5053121;28;20484;-35
2023/04/11 01:34:12;;;;;;;3.33;1.10;;;12.00;99.90;;;;;;5053008;28;20028;-35
2023/04/11 01:36:39;;;;;;;5.03;1.38;;;12.00;99.90;;;;;;5053504;28;20028;-36
2023/04/11 01:39:05;;;;;;;1.92;1.40;;;12.00;99.90;;;;;;5054643;28;20029;-36
2023/04/11 01:41:33;;;;;;;1.35;1.15;;;12.00;99.90;;;;;;5052045;28;20039;-34
2023/04/11 01:44:00;;;;;;;1.95;1.17;;;12.10;99.90;;;;;;5053043;28;20403;-36
2023/04/11 01:46:25;;;;;;;2.38;1.48;;;12.00;99.90;;;;;;5053487;28;20024;-36
2023/04/11 01:48:55;;;;;;;3.22;1.15;;;12.00;99.90;;;;;;5053954;28;20036;-37
2023/04/11 01:51:20;;;;;;;1.67;1.20;;;12.10;99.90;;;;;;5053249;28;20017;-36
2023/04/11 01:53:46;;;;;;;2.60;1.02;;;12.00;99.90;;;;;;5054259;28;20812;-35
2023/04/11 01:56:12;;;;;;;1.52;1.20;;;12.00;99.90;;;;;;5052303;28;20021;-37
2023/04/11 01:58:38;;;;;;;1.83;1.17;;;12.10;99.90;;;;;;5051831;28;20035;-38
2023/04/11 02:01:04;;;;;;;1.15;0.90;;;12.10;99.90;;;;;;5051702;28;20398;-36
2023/04/11 02:03:30;;;;;;;1.60;1.20;;;12.10;99.90;;;;;;5052302;28;20044;-34
2023/04/11 02:05:56;;;;;;;2.28;1.10;;;12.10;99.90;;;;;;5051396;28;20029;-34
2023/04/11 02:08:21;;;;;;;1.20;1.00;;;12.10;99.90;;;;;;5053189;28;20430;-36
2023/04/11 02:10:47;;;;;;;2.92;1.30;;;12.10;99.90;;;;;;5053059;28;20104;-37
2023/04/11 02:13:13;;;;;;;1.85;1.48;;;12.00;99.90;;;;;;5051513;28;20035;-38
2023/04/11 02:15:38;;;;;;;1.65;1.33;;;12.10;99.90;;;;;;5051535;28;20475;-35
2023/04/11 02:18:05;;;;;;;1.52;1.13;;;12.10;99.90;;;;;;5052497;28;20029;-35
2023/04/11 02:20:31;;;;;;;2.72;1.33;;;12.10;99.90;;;;;;5052998;28;20104;-34
2023/04/11 02:22:57;;;;;;;1.70;0.98;;;12.10;99.90;;;;;;5053873;28;20056;-35
2023/04/11 02:25:23;;;;;;;4.97;1.67;;;12.10;99.90;;;;;;5052489;28;20082;-36
2023/04/11 02:27:49;;;;;;;2.75;1.20;;;12.10;99.90;;;;;;5052700;28;20033;-34
2023/04/11 02:30:14;;;;;;;1.80;1.05;;;12.10;99.90;;;;;;5053095;28;20017;-36
2023/04/11 02:32:44;;;;;;;1.67;1.02;;;12.10;99.90;;;;;;5053157;28;20129;-35
2023/04/11 02:35:09;;;;;;;1.70;1.30;;;12.10;99.90;;;;;;5051897;28;20053;-36
2023/04/11 02:37:35;;;;;;;1.60;1.13;;;12.10;99.90;;;;;;5051671;28;20099;-36
2023/04/11 02:40:03;;;;;;;1.98;1.10;;;12.10;99.90;;;;;;5052732;28;20033;-36
2023/04/11 02:42:28;;;;;;;2.03;1.33;;;12.10;99.90;;;;;;5053193;28;20404;-38
2023/04/11 02:44:57;;;;;;;1.88;0.93;;;12.10;99.90;;;;;;5051550;28;20243;-36
2023/04/11 02:47:23;;;;;;;2.10;1.23;;;12.10;99.90;;;;;;5051772;28;20150;-38
2023/04/11 02:49:48;;;;;;;2.35;1.08;;;12.10;99.90;;;;;;5051553;28;20330;-38
2023/04/11 02:52:14;;;;;;;1.80;1.30;;;12.10;99.90;;;;;;5051522;28;20029;-35
2023/04/11 02:54:40;;;;;;;1.55;1.10;;;12.10;99.90;;;;;;5052957;28;20021;-36
2023/04/11 02:57:06;;;;;;;1.90;1.20;;;12.10;99.90;;;;;;5051554;28;20013;-34
2023/04/11 02:59:31;;;;;;;1.60;1.10;;;12.10;99.90;;;;;;5051854;28;20017;-35
2023/04/11 03:01:58;;;;;;;1.80;1.10;;;12.10;99.90;;;;;;5052285;28;20087;-35
2023/04/11 03:04:24;;;;;;;1.83;1.20;;;12.10;99.90;;;;;;5052002;28;20105;-36
2023/04/11 03:06:49;;;;;;;1.48;0.95;;;12.10;99.90;;;;;;5050402;28;20096;-34
2023/04/11 03:09:15;;;;;;;1.48;0.98;;;12.10;99.90;;;;;;5052345;28;20087;-37
2023/04/11 03:11:41;;;;;;;3.17;1.17;;;12.10;99.90;;;;;;5051757;28;20028;-36
2023/04/11 03:14:06;;;;;;;1.30;1.08;;;12.10;99.90;;;;;;5051512;28;20036;-38
2023/04/11 03:16:32;;;;;;;1.23;0.93;;;12.10;99.90;;;;;;5051527;28;20033;-34
2023/04/11 03:18:57;;;;;;;1.15;0.90;;;12.10;99.90;;;;;;5051893;28;20054;-38
2023/04/11 03:21:23;;;;;;;1.55;1.10;;;12.10;99.90;;;;;;5052430;28;20060;-35
2023/04/11 03:23:49;;;;;;;1.55;1.08;;;12.10;99.90;;;;;;5052882;28;20114;-36
2023/04/11 03:26:15;;;;;;;1.65;0.95;;;12.10;99.90;;;;;;5051758;28;20485;-35
2023/04/11 03:28:40;;;;;;;2.20;1.02;;;12.10;99.90;;;;;;5050561;28;20028;-36
2023/04/11 03:31:06;;;;;;;2.25;1.00;;;12.10;99.90;;;;;;5052660;28;20445;-34
2023/04/11 03:33:32;;;;;;;1.55;1.08;;;12.10;99.90;;;;;;5052011;28;20246;-34
2023/04/11 03:35:57;;;;;;;1.23;1.08;;;12.10;99.90;;;;;;5051913;28;20024;-35
2023/04/11 03:38:24;;;;;;;1.27;0.85;;;12.10;99.90;;;;;;5051535;28;20057;-36
2023/04/11 03:40:50;;;;;;;1.30;0.98;;;12.10;99.90;;;;;;5053793;28;20029;-34
2023/04/11 03:43:16;;;;;;;0.73;0.73;;;12.10;99.90;;;;;;5055972;28;20100;-38
2023/04/11 03:45:41;;;;;;;1.23;0.90;;;12.10;99.90;;;;;;5055610;28;20048;-38
2023/04/11 03:48:07;;;;;;;1.02;0.88;;;12.10;99.90;;;;;;5054350;28;20029;-36
2023/04/11 03:50:33;;;;;;;0.75;0.70;;;12.10;99.90;;;;;;5054720;28;20390;-35
2023/04/11 03:52:58;;;;;;;2.33;0.80;;;12.10;99.90;;;;;;5055985;28;20028;-35
2023/04/11 03:55:24;;;;;;;1.20;0.73;;;12.10;99.90;;;;;;5055578;28;20018;-36
2023/04/11 03:57:50;;;;;;;1.80;1.10;;;12.10;99.90;;;;;;5054709;28;20435;-36
2023/04/11 04:00:18;;;;;;;1.40;0.95;;;12.10;99.90;;;;;;5055639;28;20036;-35
2023/04/11 04:02:44;;;;;;;2.92;0.90;;;12.10;99.90;;;;;;5053942;28;20067;-36
2023/04/11 04:05:10;;;;;;;1.48;0.80;;;12.10;99.90;;;;;;5055218;28;20098;-38
2023/04/11 04:07:36;;;;;;;2.40;1.10;;;12.10;99.90;;;;;;5055575;28;20028;-36
2023/04/11 04:10:01;;;;;;;1.20;0.85;;;12.10;99.90;;;;;;5054471;28;20276;-37
2023/04/11 04:12:27;;;;;;;1.52;0.70;;;12.10;99.90;;;;;;5055530;28;20025;-35
2023/04/11 04:14:53;;;;;;;0.80;0.70;;;12.10;99.90;;;;;;5055236;28;20045;-36
2023/04/11 04:17:18;;;;;;;1.42;0.80;;;12.10;99.90;;;;;;5054257;28;20049;-35
2023/04/11 04:19:44;;;;;;;3.72;1.00;;;12.10;99.90;;;;;;5054335;28;20100;-36
2023/04/11 04:22:12;;;;;;;0.98;0.80;;;12.10;99.90;;;;;;5054067;28;20445;-37
2023/04/11 04:24:38;;;;;;;1.58;0.90;;;12.10;99.90;;;;;;5055273;28;20044;-35
2023/04/11 04:27:07;;;;;;;2.38;0.90;;;12.10;99.90;;;;;;5053500;28;20033;-35
2023/04/11 04:29:37;;;;;;;0.88;0.60;;;12.10;99.90;;;;;;5054894;28;20017;-35
2023/04/11 04:32:09;;;;;;;0.80;0.73;;;12.10;99.90;;;;;;5055336;28;20108;-34
2023/04/11 04:34:45;;;;;;;1.40;0.82;;;12.10;99.90;;;;;;5054756;28;20024;-36
2023/04/11 04:37:20;;;;;;;0.88;0.65;;;12.10;99.90;;;;;;5053226;28;20021;-37
2023/04/11 04:39:56;;;;;;;1.27;0.80;;;12.10;99.90;;;;;;5053702;28;20025;-37
2023/04/11 04:42:26;;;;;;;1.05;0.70;;;12.10;99.90;;;;;;5053227;28;20043;-36
2023/04/11 04:44:53;;;;;;;2.38;0.82;;;12.10;99.90;;;;;;5053298;28;20037;-34
2023/04/11 04:47:22;;;;;;;1.40;0.70;;;12.10;99.90;;;;;;5054151;28;20035;-37
2023/04/11 04:49:52;;;;;;;0.98;0.80;;;12.10;99.90;;;;;;5054230;28;20021;-36
2023/04/11 04:52:18;;;;;;;1.42;0.70;;;12.10;99.90;;;;;;5053919;28;20407;-35
2023/04/11 04:54:44;;;;;;;1.00;0.70;;;12.10;99.90;;;;;;5053468;28;20493;-36
2023/04/11 04:57:10;;;;;;;0.90;0.80;;;12.10;99.90;;;;;;5052544;28;20017;-36
2023/04/11 04:59:36;;;;;;;0.75;0.70;;;12.10;99.90;;;;;;5053441;28;20079;-35
2023/04/11 05:02:01;;;;;;;1.52;0.65;;;12.10;99.90;;;;;;5053962;28;20032;-35
2023/04/11 05:04:27;;;;;;;1.00;0.50;;;12.10;99.90;;;;;;5053809;28;20037;-36
2023/04/11 05:06:53;;;;;;;1.00;0.70;;;12.10;99.90;;;;;;5053033;28;20410;-37
2023/04/11 05:09:18;;;;;;;0.73;0.50;;;12.10;99.90;;;;;;5054474;28;20029;-37
2023/04/11 05:11:44;;;;;;;1.27;0.80;;;12.10;99.90;;;;;;5054431;28;20025;-34
2023/04/11 05:14:10;;;;;;;0.90;0.70;;;12.10;99.90;;;;;;5053689;28;20052;-36
2023/04/11 05:16:38;;;;;;;0.70;0.57;;;12.10;99.90;;;;;;5053912;28;20491;-36
2023/04/11 05:19:04;;;;;;;0.90;0.73;;;12.10;99.90;;;;;;5052983;28;20044;-39
2023/04/11 05:21:29;;;;;;;1.45;0.68;;;12.10;99.90;;;;;;5054952;28;20033;-34
2023/04/11 05:23:55;;;;;;;0.70;0.55;;;12.10;99.90;;;;;;5054806;28;20037;-36
2023/04/11 05:26:20;;;;;;;1.45;0.63;;;12.10;99.90;;;;;;5052780;28;20025;-35
2023/04/11 05:28:46;;;;;;;1.30;0.63;;;12.10;99.90;;;;;;5053248;28;20514;-34
2023/04/11 05:31:12;;;;;;;0.95;0.63;;;12.10;99.90;;;;;;5054973;28;20021;-37
2023/04/11 05:33:39;;;;;;;1.27;0.60;;;12.10;99.90;;;;;;5053668;28;20498;-35
2023/04/11 05:36:05;;;;;;;3.92;0.80;;;12.10;99.90;;;;;;5052544;28;20029;-36
2023/04/11 05:38:34;;;;;;;1.02;0.60;;;12.10;99.90;;;;;;5052651;28;20115;-36
2023/04/11 05:41:00;;;;;;;2.25;0.60;;;12.10;99.90;;;;;;5054476;28;20103;-35
2023/04/11 05:43:25;;;;;;;2.22;0.60;;;12.10;99.90;;;;;;5053871;28;20078;-36
2023/04/11 05:45:51;;;;;;;1.05;0.68;;;12.10;99.90;;;;;;5051513;28;20036;-36
2023/04/11 05:48:20;;;;;;;0.50;0.47;;;12.10;99.90;;;;;;5053180;28;20055;-35
2023/04/11 05:50:45;;;;;;;2.00;0.82;;;12.10;99.90;;;;;;5052812;28;20029;-36
2023/04/11 05:53:11;;;;;;;1.80;0.60;;;12.00;99.90;;;;;;5054122;28;20377;-35
2023/04/11 05:55:37;;;;;;;1.77;0.70;;;12.00;99.90;;;;;;5052243;28;20032;-36
2023/04/11 05:58:03;;;;;;;1.63;0.65;;;12.00;99.90;;;;;;5053043;28;20403;-36
2023/04/11 06:00:31;;;;;;;1.98;0.80;;;12.00;99.90;;;;;;5053119;28;20087;-35
2023/04/11 06:02:58;;;;;;;2.25;0.70;;;12.00;99.90;;;;;;5052137;28;20044;-36
2023/04/11 06:05:25;;;;;;;1.38;0.60;;;12.00;99.90;;;;;;5051575;28;20028;-35
2023/04/11 06:07:52;;;;;;;1.33;0.65;;;12.00;99.90;;;;;;5051252;28;20029;-37
2023/04/11 06:10:17;;;;;;;2.35;0.77;;;12.00;99.90;;;;;;5053333;28;20160;-37
2023/04/11 06:12:43;;;;;;;1.38;0.75;;;12.00;99.90;;;;;;5053608;28;20052;-35
2023/04/11 06:15:10;;;;;;;2.15;0.63;;;12.00;99.90;;;;;;5052707;28;20029;-35
2023/04/11 06:17:37;;;;;;;0.70;0.60;;;12.00;99.90;;;;;;5053087;28;20387;-34
2023/04/11 06:20:04;;;;;;;1.25;0.60;;;12.00;99.90;;;;;;5052381;28;20021;-34
2023/04/11 06:22:30;;;;;;;1.15;0.70;;;12.00;99.90;;;;;;5053303;28;20029;-35
2023/04/11 06:24:56;;;;;;;1.35;0.60;;;12.00;99.90;;;;;;5051706;28;20029;-38
2023/04/11 06:27:21;;;;;;;0.95;0.60;;;12.00;99.90;;;;;;5052055;28;20100;-35
2023/04/11 06:29:47;;;;;;;1.65;0.60;;;12.00;99.90;;;;;;5052196;28;20491;-36
2023/04/11 06:32:13;;;;;;;2.10;0.65;;;12.00;99.90;;;;;;5051515;28;20423;-36
2023/04/11 06:34:38;;;;;;;1.02;0.60;;;12.10;99.90;;;;;;5051044;28;20048;-35
2023/04/11 06:37:05;;;;;;;0.73;0.57;;;12.00;99.90;;;;;;5051348;28;20165;-36
2023/04/11 06:39:33;;;;;;;3.03;0.60;;;12.00;99.90;;;;;;5051895;28;20730;-34
2023/04/11 06:41:59;;;;;;;1.08;0.73;;;12.00;99.90;;;;;;5052661;28;20032;-38
2023/04/11 06:44:25;;;;;;;3.97;0.77;;;12.00;99.90;;;;;;5051961;28;20039;-34
2023/04/11 06:46:50;;;;;;;3.58;0.80;;;12.00;99.90;;;;;;5050740;28;20029;-33
2023/04/11 06:49:17;;;;;;;2.30;0.80;;;12.00;99.90;;;;;;5050807;28;20021;-33
2023/04/11 06:51:46;;;;;;;4.32;1.05;;;12.00;99.90;;;;;;5051223;28;20039;-33
2023/04/11 06:54:11;;;;;;;2.05;0.60;;;11.90;99.90;;;;;;5050858;28;20078;-33
2023/04/11 06:56:37;;;;;;;2.35;1.00;;;11.90;99.90;;;;;;5050447;28;20100;-33
2023/04/11 06:59:03;;;;;;;2.40;0.82;;;12.00;99.90;;;;;;5050847;28;20442;-33
2023/04/11 07:01:34;;;;;;;2.38;0.55;;;11.90;99.90;;;;;;5050842;28;20098;-37
2023/04/11 07:04:00;;;;;;;3.88;1.00;;;11.90;99.90;;;;;;5049362;28;20407;-33
2023/04/11 07:06:26;;;;;;;3.00;0.98;;;11.90;99.90;;;;;;5050238;28;20036;-34
2023/04/11 07:08:52;;;;;;;1.48;0.73;;;11.90;99.90;;;;;;5050699;28;20071;-33
2023/04/11 07:11:18;;;;;;;2.85;0.80;;;11.90;99.90;;;;;;5050787;28;20430;-33
2023/04/11 07:13:43;;;;;;;4.03;0.98;;;11.80;99.90;;;;;;5050701;28;20032;-33
2023/04/11 07:16:09;;;;;;;2.30;0.77;;;11.90;99.90;;;;;;5052602;28;20021;-35
2023/04/11 07:18:34;;;;;;;2.72;0.80;;;11.80;99.90;;;;;;5054594;28;20095;-33
2023/04/11 07:21:00;;;;;;;2.10;0.80;;;11.90;99.90;;;;;;5054730;28;20031;-33
2023/04/11 07:23:26;;;;;;;1.63;0.50;;;11.90;99.90;;;;;;5054884;28;20066;-33
2023/04/11 07:25:53;;;;;;;1.80;0.70;;;11.80;99.90;;;;;;5054307;28;20029;-34
2023/04/11 07:28:20;;;;;;;2.08;0.80;;;11.80;99.90;;;;;;5054521;28;20024;-33
2023/04/11 07:30:46;;;;;;;1.52;0.63;;;11.90;99.90;;;;;;5054563;28;20017;-36
2023/04/11 07:33:12;;;;;;;3.22;0.82;;;11.90;99.90;;;;;;5054339;28;20056;-35
2023/04/11 07:35:38;;;;;;;2.88;0.93;;;11.80;99.90;;;;;;5054385;28;20467;-35
2023/04/11 07:38:03;;;;;;;2.38;0.90;;;11.90;99.90;;;;;;5054616;28;20087;-36
2023/04/11 07:40:30;;;;;;;2.40;0.90;;;11.80;99.90;;;;;;5054422;28;20507;-33
2023/04/11 07:42:55;;;;;;;2.03;0.80;;;11.80;99.90;;;;;;5053684;28;20029;-36
2023/04/11 07:45:21;;;;;;;2.25;0.77;;;11.90;99.90;;;;;;5054898;28;20074;-35
2023/04/11 07:47:47;;;;;;;2.33;0.80;;;11.90;99.90;;;;;;5054440;28;20029;-34
2023/04/11 07:50:13;;;;;;;4.82;0.98;;;11.90;99.90;;;;;;5055945;28;20029;-37
2023/04/11 07:52:38;;;;;;;3.65;1.20;;;11.90;99.90;;;;;;5055583;28;20028;-35
2023/04/11 07:55:05;;;;;;;4.32;0.98;;;11.90;99.90;;;;;;5056261;28;20021;-36
2023/04/11 07:57:30;;;;;;;2.55;1.02;;;12.00;99.90;;;;;;5054839;28;20036;-37
2023/04/11 07:59:59;;;;;;;3.13;1.02;;;11.90;99.90;;;;;;5055274;28;20021;-35
2023/04/11 08:02:25;;;;;;;2.38;0.88;;;12.00;99.90;;;;;;5056356;28;20116;-36
2023/04/11 08:04:51;;;;;;;2.83;0.95;;;12.00;99.90;;;;;;5055960;28;20061;-44
2023/04/11 08:07:16;;;;;;;1.67;0.80;;;12.00;99.90;;;;;;5053243;28;20025;-43
2023/04/11 08:09:42;;;;;;;4.13;0.82;;;12.00;99.90;;;;;;5053906;28;20104;-46
2023/04/11 08:12:09;;;;;;;3.38;1.08;;;12.00;99.90;;;;;;5055436;28;20048;-44
2023/04/11 08:14:35;;;;;;;2.53;0.90;;;12.00;99.90;;;;;;5053843;28;20025;-44
2023/04/11 08:17:01;;;;;;;1.58;0.70;;;12.00;99.90;;;;;;5054670;28;20021;-45
2023/04/11 08:19:27;;;;;;;0.88;0.60;;;12.00;99.90;;;;;;5055492;28;20083;-46
2023/04/11 08:21:52;;;;;;;8.88;1.80;;;12.00;99.90;;;;;;5053484;28;20036;-46
2023/04/11 08:24:19;;;;;;;7.90;1.55;;;12.00;99.90;;;;;;5053686;28;20036;-42
2023/04/11 08:26:44;;;;;;;6.07;1.20;;;12.00;99.90;;;;;;5052774;28;20086;-44
2023/04/11 08:29:11;;;;;;;7.30;1.38;;;12.00;99.90;;;;;;5055028;28;20025;-43
2023/04/11 08:31:43;;;;;;;6.15;1.42;;;12.00;99.90;;;;;;5054600;28;20017;-38
2023/04/11 08:34:10;;;;;;;5.28;1.25;;;12.00;99.90;;;;;;5054444;28;20025;-40
2023/04/11 08:36:36;;;;;;;8.38;1.30;;;11.90;99.90;;;;;;5053511;28;20033;-43
2023/04/11 08:39:02;;;;;;;6.20;1.25;;;11.90;99.90;;;;;;5054967;28;20036;-43
2023/04/11 08:41:32;;;;;;;6.15;1.48;;;11.90;99.90;;;;;;5054729;28;20550;-39
2023/04/11 08:43:58;;;;;;;6.53;1.23;;;11.90;99.90;;;;;;5054653;28;20084;-44
2023/04/11 08:46:24;;;;;;;5.82;1.15;;;11.90;99.90;;;;;;5055203;28;20071;-43
2023/04/11 08:48:50;;;;;;;4.40;1.10;;;11.90;99.90;;;;;;5056388;28;20032;-43
2023/04/11 08:51:24;;;;;;;9.63;1.20;;;11.90;99.90;;;;;;5053824;28;20013;-43
2023/04/11 08:53:52;;;;;;;3.15;0.95;;;11.90;99.90;;;;;;5054201;28;20028;-42
2023/04/11 08:56:18;;;;;;;4.13;1.00;;;11.90;99.90;;;;;;5052428;28;20021;-43
2023/04/11 08:58:44;;;;;;;4.13;1.17;;;11.90;99.90;;;;;;5054239;28;20041;-43
2023/04/11 09:01:30;;;;;;;3.67;1.10;;;11.90;99.90;;;;;;5052785;28;20017;-41
2023/04/11 09:04:01;;;;;;;5.13;1.38;;;11.90;99.90;;;;;;5052751;28;20044;-42
2023/04/11 09:06:31;;;;;;;4.15;1.20;;;11.90;99.90;;;;;;5052346;28;20040;-43
2023/04/11 09:09:04;;;;;;;5.95;1.25;;;11.90;99.90;;;;;;5053113;28;20028;-41
2023/04/11 09:11:30;;;;;;;6.32;1.15;;;11.90;99.90;;;;;;5053082;28;20104;-43
2023/04/11 09:14:09;;;;;;;4.45;1.23;;;12.00;99.90;;;;;;5053865;28;20071;-41
2023/04/11 09:16:36;;;;;;;3.22;1.20;;;12.00;99.90;;;;;;5053967;28;20021;-40
2023/04/11 09:19:02;;;;;;;3.88;0.95;;;12.00;99.90;;;;;;5052934;28;20387;-42
2023/04/11 09:21:28;;;;;;;4.97;0.90;;;12.00;99.90;;;;;;5052603;28;20171;-43
2023/04/11 09:24:14;;;;;;;5.43;0.95;;;12.00;99.90;;;;;;5053223;28;20033;-44
2023/04/11 09:26:40;;;;;;;3.95;0.98;;;12.00;99.90;;;;;;5052323;28;20029;-43
2023/04/11 09:29:06;;;;;;;3.45;1.10;;;12.00;99.90;;;;;;5052181;28;20025;-43
2023/04/11 09:31:43;;;;;;;4.70;0.93;;;12.10;99.90;;;;;;5052446;28;20537;-41
2023/04/11 09:34:10;;;;;;;2.47;0.73;;;12.00;99.90;;;;;;5052299;28;20017;-43
2023/04/11 09:36:36;;;;;;;5.95;1.20;;;12.10;99.90;;;;;;5052178;28;20021;-43
2023/04/11 09:39:17;;;;;;;3.47;0.90;;;12.10;99.90;;;;;;5053577;28;20116;-43
2023/04/11 09:41:44;;;;;;;4.00;1.00;;;12.20;99.90;;;;;;5053432;28;20375;-43
2023/04/11 09:44:09;;;;;;;5.50;0.98;;;12.20;99.90;;;;;;5052534;28;20070;-44
2023/04/11 09:46:36;;;;;;;2.08;0.80;;;12.20;99.90;;;;;;5053192;28;20037;-40
2023/04/11 09:49:02;;;;;;;3.13;1.17;;;12.20;99.90;;;;;;5053513;28;20021;-43
2023/04/11 09:51:28;;;;;;;3.25;0.93;;;12.20;99.90;;;;;;5053931;28;20040;-37
2023/04/11 09:53:54;;;;;;;3.70;0.95;;;12.20;99.90;;;;;;5053311;28;20029;-43
2023/04/11 09:56:21;;;;;;;2.35;0.80;;;12.20;99.90;;;;;;5052349;28;20025;-44
2023/04/11 09:58:48;;;;;;;1.17;0.60;;;12.20;99.90;;;;;;5053438;28;20032;-45
2023/04/11 10:01:17;;;;;;;5.13;1.17;;;12.20;99.90;;;;;;5052455;28;20041;-42
2023/04/11 10:03:46;;;;;;;2.13;0.77;;;12.20;99.90;;;;;;5052256;28;20403;-41
2023/04/11 10:06:19;;;;;;;2.03;0.70;;;12.10;99.90;;;;;;5051392;28;20028;-43
2023/04/11 10:08:46;;;;;;;3.80;1.17;;;12.20;99.90;;;;;;5051772;28;20366;-43
2023/04/11 10:11:13;;;;;;;3.85;0.90;;;12.20;99.90;;;;;;5052418;28;20021;-43
2023/04/11 10:13:43;;;;;;;2.35;0.73;;;12.20;99.90;;;;;;5052690;28;20032;-44
2023/04/11 10:16:19;;;;;;;2.13;1.05;;;12.20;99.90;;;;;;5050057;28;20108;-43
2023/04/11 10:18:53;;;;;;;2.53;0.73;;;12.20;99.90;;;;;;5052273;28;20063;-42
2023/04/11 10:21:28;;;;;;;;;;;12.20;99.90;;;;;;5052706;28;20028;-43
2023/04/11 10:24:10;;;;;;;4.40;0.80;;;12.20;99.90;;;;;;5052298;28;19908;-40
2023/04/11 10:26:47;;;;;;;3.40;0.70;;;12.20;99.90;;;;;;5051722;28;20802;-42
2023/04/11 10:29:39;;;;;;;4.15;0.90;;;12.20;99.90;;;;;;5052388;28;20025;-42
2023/04/11 10:32:08;;;;;;;3.30;0.80;;;12.20;99.90;;;;;;5051840;28;20047;-42
2023/04/11 10:34:37;;;;;;;1.48;0.82;;;12.30;99.90;;;;;;5052155;28;20021;-43
2023/04/11 10:37:08;;;;;;;1.20;0.50;;;12.30;99.90;;;;;;5051919;28;20017;-42
2023/04/11 10:39:52;;;;;;;3.95;0.70;;;12.30;99.90;;;;;;5052477;28;20033;-40
2023/04/11 10:42:27;;;;;;;2.50;0.90;;;12.30;99.90;;;;;;5052430;28;20037;-44
2023/04/11 10:45:16;;;;;;;6.82;1.00;;;12.30;99.90;;;;;;5052191;28;20036;-43
2023/04/11 10:47:57;;;;;;;6.40;1.30;;;12.30;99.90;;;;;;5051232;28;20061;-45
2023/04/11 10:50:25;;;;;;;7.95;1.48;;;12.30;99.90;;;;;;5051608;28;20031;-44
2023/04/11 10:52:56;;;;;;;9.20;1.42;;;12.30;99.90;;;;;;5050931;28;20356;-44
2023/04/11 10:55:25;;;;;;;7.15;1.63;;;12.30;99.90;;;;;;5050789;28;20024;-44
2023/04/11 10:58:04;;;;;;;5.53;1.40;;;12.30;99.90;;;;;;5050596;28;20467;-44
2023/04/11 11:00:53;;;;;;;6.78;1.20;;;12.30;99.90;;;;;;5051016;28;20483;-45
2023/04/11 11:03:30;;;;;;;2.35;1.00;;;12.30;99.90;;;;;;5050665;28;20374;-44
2023/04/11 11:06:07;;;;;;;6.28;1.48;;;12.30;99.90;;;;;;5050408;28;20021;-44
2023/04/11 11:08:34;;;;;;;4.00;1.20;;;12.30;99.90;;;;;;5050855;28;20387;-44
2023/04/11 11:11:07;;;;;;;4.53;1.20;;;12.30;99.90;;;;;;5050739;28;20025;-45
2023/04/11 11:13:42;;;;;;;2.97;0.93;;;12.30;99.90;;;;;;5050779;28;20032;-44
2023/04/11 11:16:12;;;;;;;6.97;1.10;;;12.30;99.90;;;;;;5050044;28;20021;-44
2023/04/11 11:18:38;;;;;;;5.40;0.95;;;12.30;99.90;;;;;;5051053;28;20098;-45
2023/04/11 11:21:04;;;;;;;3.35;1.08;;;12.40;99.90;;;;;;5050750;28;20068;-44
2023/04/11 11:23:29;;;;;;;3.85;1.23;;;12.40;99.90;;;;;;5050713;28;20040;-44
2023/04/11 11:25:57;;;;;;;2.67;1.15;;;12.40;99.90;;;;;;5050299;28;20025;-46
2023/04/11 11:28:23;;;;;;;2.80;1.15;;;12.40;99.90;;;;;;5050596;28;20391;-44
2023/04/11 11:30:53;;;;;;;1.45;0.82;;;12.40;99.90;;;;;;5050963;28;20025;-44
2023/04/11 11:33:25;;;;;;;3.53;0.88;;;12.40;99.90;;;;;;5051277;28;20423;-44
2023/04/11 11:36:03;;;;;;;2.72;1.05;;;12.40;99.90;;;;;;5050216;28;20086;-44
2023/04/11 11:38:30;;;;;;;2.70;0.85;;;12.40;99.90;;;;;;5050664;28;20033;-44
2023/04/11 11:40:57;;;;;;;5.00;1.48;;;12.40;99.90;;;;;;5050485;28;20029;-44
2023/04/11 11:43:26;;;;;;;7.70;1.23;;;12.40;99.90;;;;;;5050557;28;20025;-44
2023/04/11 11:46:14;;;;;;;2.65;0.85;;;12.40;99.90;;;;;;5050008;28;20031;-44
2023/04/11 11:49:00;;;;;;;5.30;1.10;;;12.40;99.90;;;;;;5050737;28;20467;-43
2023/04/11 11:51:26;;;;;;;3.47;0.95;;;12.40;99.90;;;;;;5050361;28;20102;-44
2023/04/11 11:54:20;;;;;;;2.28;0.93;;;12.40;99.90;;;;;;5050399;28;20055;-44
2023/04/11 11:56:51;;;;;;;3.20;1.00;;;12.50;99.90;;;;;;5045198;28;20036;-43
2023/04/11 11:59:26;;;;;;;6.75;1.10;;;12.40;99.90;;;;;;5050398;28;20036;-44
2023/04/11 12:01:51;;;;;;;2.47;0.90;;;12.40;99.90;;;;;;5051903;28;20025;-45
2023/04/11 12:04:19;;;;;;;4.35;1.13;;;12.40;99.90;;;;;;5053992;28;20039;-43
2023/04/11 12:06:45;;;;;;;4.45;0.90;;;12.40;99.90;;;;;;5053673;28;20029;-46
2023/04/11 12:09:11;;;;;;;3.83;1.23;;;12.40;99.90;;;;;;5054201;28;20051;-45
2023/04/11 12:11:41;;;;;;;2.13;0.90;;;12.40;99.90;;;;;;5054318;28;20025;-45
2023/04/11 12:14:08;;;;;;;2.13;0.82;;;12.40;99.90;;;;;;5053850;28;20379;-45
2023/04/11 12:16:36;;;;;;;4.70;1.00;;;12.40;99.90;;;;;;5053334;28;20489;-45
2023/04/11 12:19:03;;;;;;;3.50;1.08;;;12.40;99.90;;;;;;5054020;28;20055;-46
2023/04/11 12:21:29;;;;;;;2.30;0.80;;;12.40;99.90;;;;;;5053895;28;20506;-43
2023/04/11 12:23:55;;;;;;;3.20;0.90;;;12.40;99.90;;;;;;5052330;28;20116;-45
2023/04/11 12:26:21;;;;;;;5.50;1.10;;;12.40;99.90;;;;;;5052991;28;20112;-45
2023/04/11 12:28:48;;;;;;;3.45;1.30;;;12.40;99.90;;;;;;5053330;28;20032;-43
2023/04/11 12:31:14;;;;;;;3.28;1.33;;;12.40;99.90;;;;;;5053515;28;20175;-45
2023/04/11 12:33:40;;;;;;;5.90;1.50;;;12.40;99.90;;;;;;5054367;28;20017;-45
2023/04/11 12:36:06;;;;;;;8.85;1.40;;;12.40;99.90;;;;;;5052971;28;20021;-45
2023/04/11 12:38:32;;;;;;;2.88;1.13;;;12.40;99.90;;;;;;5053446;28;20159;-45
2023/04/11 12:40:58;;;;;;;7.28;1.38;;;12.40;99.90;;;;;;5053382;28;20029;-45
2023/04/11 12:43:24;;;;;;;7.20;1.42;;;12.40;99.90;;;;;;5053234;28;20040;-45
2023/04/11 12:45:50;;;;;;;6.22;1.30;;;12.50;99.90;;;;;;5051485;28;20033;-44
2023/04/11 12:48:15;;;;;;;3.97;1.23;;;12.40;99.90;;;;;;5053254;28;20067;-45
2023/04/11 12:50:41;;;;;;;3.97;1.17;;;12.50;99.90;;;;;;5053122;28;20387;-43